createdAt,value
2017-07-18T00:01:06.743Z,3.70
2017-07-18T00:03:35.032Z,4.60
2017-07-18T00:06:03.356Z,3.43
2017-07-18T00:08:32.447Z,3.77
2017-07-18T00:11:00.728Z,4.53
2017-07-18T00:13:29.039Z,4.47
2017-07-18T00:15:58.093Z,3.73
2017-07-18T00:18:26.499Z,3.50
2017-07-18T00:20:54.820Z,4.70
2017-07-18T00:23:24.008Z,3.60
2017-07-18T00:25:52.405Z,4.30
2017-07-18T00:28:20.681Z,3.43
2017-07-18T00:30:48.968Z,4.47
2017-07-18T00:33:17.271Z,4.20
2017-07-18T00:35:45.594Z,3.93
2017-07-18T00:38:13.921Z,4.77
2017-07-18T00:40:42.199Z,4.10
2017-07-18T00:43:10.615Z,4.10
2017-07-18T00:45:38.887Z,3.53
2017-07-18T00:48:07.216Z,4.07
2017-07-18T00:50:35.546Z,3.60
2017-07-18T00:53:03.918Z,4.17
2017-07-18T00:55:32.995Z,4.10
2017-07-18T00:58:01.325Z,4.77
2017-07-18T01:00:29.675Z,3.40
2017-07-18T01:02:57.991Z,4.10
2017-07-18T01:05:27.071Z,4.60
2017-07-18T01:07:55.416Z,3.90
2017-07-18T01:10:23.737Z,4.57
2017-07-18T01:12:52.159Z,3.97
2017-07-18T01:15:21.238Z,4.47
2017-07-18T01:17:49.544Z,3.70
2017-07-18T01:20:17.869Z,3.90
2017-07-18T01:22:46.232Z,3.67
2017-07-18T01:25:14.535Z,4.13
2017-07-18T01:27:43.584Z,4.50
2017-07-18T01:30:11.906Z,4.13
2017-07-18T01:32:40.194Z,4.80
2017-07-18T01:35:08.537Z,4.50
2017-07-18T01:37:36.825Z,3.90
2017-07-18T01:40:05.164Z,3.87
2017-07-18T01:42:33.557Z,4.20
2017-07-18T01:45:01.835Z,3.87
2017-07-18T01:47:30.152Z,4.10
2017-07-18T01:49:59.212Z,6.00
2017-07-18T01:52:27.532Z,4.57
2017-07-18T01:54:55.816Z,4.43
2017-07-18T01:57:24.096Z,4.60
2017-07-18T01:59:52.411Z,4.07
2017-07-18T02:02:20.697Z,4.07
2017-07-18T02:04:49.010Z,5.07
2017-07-18T02:07:18.082Z,4.77
2017-07-18T02:09:46.481Z,4.80
2017-07-18T02:12:14.809Z,4.20
2017-07-18T02:14:43.092Z,3.90
2017-07-18T02:17:11.464Z,4.00
2017-07-18T02:19:39.745Z,4.17
2017-07-18T02:22:08.130Z,4.70
2017-07-18T02:24:36.417Z,3.73
2017-07-18T02:27:04.697Z,4.60
2017-07-18T02:29:33.122Z,4.33
2017-07-18T02:32:02.168Z,4.03
2017-07-18T02:34:30.450Z,4.53
2017-07-18T02:36:58.784Z,4.10
2017-07-18T02:39:27.069Z,3.90
2017-07-18T02:41:55.403Z,4.60
2017-07-18T02:44:23.684Z,4.87
2017-07-18T02:46:51.978Z,4.90
2017-07-18T02:49:20.304Z,4.40
2017-07-18T02:51:48.585Z,4.30
2017-07-18T02:54:16.900Z,4.10
2017-07-18T02:56:45.180Z,4.77
2017-07-18T02:59:13.579Z,4.40
2017-07-18T03:01:41.903Z,4.47
2017-07-18T03:04:11.008Z,5.70
2017-07-18T03:06:40.061Z,3.63
2017-07-18T03:09:08.475Z,5.13
2017-07-18T03:11:36.764Z,4.67
2017-07-18T03:14:05.087Z,4.43
2017-07-18T03:16:34.147Z,4.60
2017-07-18T03:19:02.442Z,3.90
2017-07-18T03:21:31.591Z,4.73
2017-07-18T03:24:00.648Z,5.60
2017-07-18T03:26:29.157Z,4.70
2017-07-18T03:28:57.630Z,4.97
2017-07-18T03:31:25.907Z,4.80
2017-07-18T03:33:54.228Z,4.43
2017-07-18T03:36:22.536Z,4.77
2017-07-18T03:38:50.942Z,4.73
2017-07-18T03:41:19.260Z,5.57
2017-07-18T03:43:47.567Z,4.70
2017-07-18T03:46:15.882Z,4.90
2017-07-18T03:48:44.193Z,5.17
2017-07-18T03:51:12.508Z,4.30
2017-07-18T03:53:41.676Z,4.83
2017-07-18T03:56:09.968Z,4.57
2017-07-18T03:58:38.472Z,4.70
2017-07-18T04:01:06.796Z,4.30
2017-07-18T04:03:35.839Z,3.50
2017-07-18T04:06:04.166Z,4.63
2017-07-18T04:08:32.453Z,2.50
2017-07-18T04:11:00.840Z,3.80
2017-07-18T04:13:29.124Z,3.33
2017-07-18T04:15:57.435Z,3.50
2017-07-18T04:18:26.509Z,3.03
2017-07-18T04:20:54.801Z,3.13
2017-07-18T04:23:23.114Z,2.83
2017-07-18T04:25:51.427Z,3.20
2017-07-18T04:28:19.750Z,3.03
2017-07-18T04:30:48.070Z,3.20
2017-07-18T04:33:16.343Z,3.90
2017-07-18T04:35:44.685Z,3.50
2017-07-18T04:38:13.748Z,3.90
2017-07-18T04:40:42.037Z,3.77
2017-07-18T04:43:10.439Z,4.67
2017-07-18T04:45:38.740Z,3.20
2017-07-18T04:48:07.122Z,3.60
2017-07-18T04:50:35.514Z,3.57
2017-07-18T04:53:03.789Z,3.33
2017-07-18T04:55:32.288Z,3.10
2017-07-18T04:58:00.580Z,3.70
2017-07-18T05:00:29.085Z,3.47
2017-07-18T05:02:57.412Z,3.40
2017-07-18T05:05:25.700Z,3.60
2017-07-18T05:07:54.020Z,3.30
2017-07-18T05:10:22.301Z,2.50
2017-07-18T05:12:50.637Z,3.00
2017-07-18T05:15:19.007Z,2.50
2017-07-18T05:17:47.296Z,3.20
2017-07-18T05:20:15.617Z,2.10
2017-07-18T05:22:44.809Z,1.70
2017-07-18T05:25:13.136Z,2.20
2017-07-18T05:27:41.432Z,4.60
2017-07-18T05:30:09.743Z,2.13
2017-07-18T05:32:38.179Z,1.97
2017-07-18T05:35:07.219Z,2.00
2017-07-18T05:37:35.556Z,1.67
2017-07-18T05:40:03.836Z,2.00
2017-07-18T05:42:32.151Z,1.50
2017-07-18T05:45:00.465Z,1.33
2017-07-18T05:47:28.784Z,1.73
2017-07-18T05:49:57.116Z,1.50
2017-07-18T05:52:25.506Z,1.60
2017-07-18T05:54:53.889Z,1.67
2017-07-18T05:57:22.287Z,1.70
2017-07-18T05:59:50.672Z,1.33
2017-07-18T06:02:19.001Z,1.67
2017-07-18T06:04:47.328Z,2.03
2017-07-18T06:07:15.649Z,1.63
2017-07-18T06:09:44.037Z,1.50
2017-07-18T06:12:12.425Z,1.50
2017-07-18T06:14:40.746Z,1.17
2017-07-18T06:17:09.915Z,1.50
2017-07-18T06:19:38.238Z,1.40
2017-07-18T06:22:07.392Z,1.60
2017-07-18T06:24:35.722Z,1.00
2017-07-18T06:27:04.001Z,1.30
2017-07-18T06:29:32.321Z,1.67
2017-07-18T06:32:00.595Z,1.33
2017-07-18T06:34:29.704Z,1.83
2017-07-18T06:36:58.788Z,1.23
2017-07-18T06:39:27.176Z,1.40
2017-07-18T06:41:55.456Z,1.60
2017-07-18T06:44:23.856Z,1.50
2017-07-18T06:46:52.261Z,1.53
2017-07-18T06:49:20.535Z,1.30
2017-07-18T06:51:48.862Z,1.20
2017-07-18T06:54:17.233Z,2.07
2017-07-18T06:56:45.560Z,1.43
2017-07-18T06:59:13.913Z,1.50
2017-07-18T07:01:42.198Z,1.00
2017-07-18T07:04:10.508Z,1.10
2017-07-18T07:06:39.551Z,1.20
2017-07-18T07:09:07.886Z,1.27
2017-07-18T07:11:36.275Z,1.10
2017-07-18T07:14:04.569Z,1.40
2017-07-18T07:16:32.884Z,1.43
2017-07-18T07:19:01.254Z,0.90
2017-07-18T07:21:29.600Z,1.07
2017-07-18T07:23:57.892Z,1.10
2017-07-18T07:26:26.209Z,1.30
2017-07-18T07:28:54.516Z,1.30
2017-07-18T07:31:23.577Z,1.57
2017-07-18T07:33:51.999Z,1.70
2017-07-18T07:36:20.384Z,1.43
2017-07-18T07:38:48.789Z,1.03
2017-07-18T07:41:17.167Z,1.00
2017-07-18T07:43:45.492Z,1.10
2017-07-18T07:46:14.731Z,1.33
2017-07-18T07:48:43.415Z,1.40
2017-07-18T07:51:11.765Z,1.67
2017-07-18T07:53:40.071Z,1.03
2017-07-18T07:56:09.116Z,0.87
2017-07-18T07:58:37.438Z,1.33
2017-07-18T08:01:05.727Z,1.10
2017-07-18T08:03:34.133Z,1.00
2017-07-18T08:06:02.429Z,1.90
2017-07-18T08:08:30.769Z,1.07
2017-07-18T08:10:59.055Z,0.90
2017-07-18T08:13:27.334Z,1.13
2017-07-18T08:15:55.660Z,1.63
2017-07-18T08:18:23.946Z,1.40
2017-07-18T08:20:52.263Z,1.53
2017-07-18T08:23:20.588Z,1.00
2017-07-18T08:25:48.876Z,1.10
2017-07-18T08:28:17.166Z,1.50
2017-07-18T08:30:45.478Z,1.00
2017-07-18T08:33:13.792Z,1.23
2017-07-18T08:35:42.078Z,1.27
2017-07-18T08:38:10.388Z,1.60
2017-07-18T08:40:38.706Z,1.27
2017-07-18T08:43:07.779Z,1.00
2017-07-18T08:45:36.176Z,1.60
2017-07-18T08:48:04.569Z,1.10
2017-07-18T08:50:32.876Z,1.40
2017-07-18T08:53:01.981Z,1.07
2017-07-18T08:55:31.023Z,1.30
2017-07-18T08:57:59.364Z,1.30
2017-07-18T09:00:28.005Z,0.80
2017-07-18T09:02:56.344Z,1.27
2017-07-18T09:05:24.670Z,0.90
2017-07-18T09:07:53.044Z,1.13
2017-07-18T09:10:21.361Z,1.20
2017-07-18T09:12:49.726Z,1.10
2017-07-18T09:15:18.778Z,1.13
2017-07-18T09:17:47.113Z,1.10
2017-07-18T09:20:15.483Z,1.30
2017-07-18T09:22:43.817Z,1.23
2017-07-18T09:25:12.892Z,1.03
2017-07-18T09:27:41.198Z,1.10
2017-07-18T09:30:10.249Z,1.13
2017-07-18T09:32:38.584Z,1.20
2017-07-18T09:35:06.959Z,0.93
2017-07-18T09:37:35.240Z,1.20
2017-07-18T09:40:03.556Z,1.13
2017-07-18T09:42:31.934Z,1.00
2017-07-18T09:45:00.328Z,1.20
2017-07-18T09:47:28.712Z,1.30
2017-07-18T09:49:57.112Z,1.27
2017-07-18T09:52:25.418Z,1.67
2017-07-18T09:54:54.472Z,1.50
2017-07-18T09:57:22.792Z,1.30
2017-07-18T09:59:51.076Z,1.40
2017-07-18T10:02:19.383Z,1.00
2017-07-18T10:04:47.766Z,1.40
2017-07-18T10:07:16.088Z,1.10
2017-07-18T10:09:45.258Z,1.57
2017-07-18T10:12:13.652Z,1.33
2017-07-18T10:14:41.948Z,1.80
2017-07-18T10:17:10.331Z,1.60
2017-07-18T10:19:38.630Z,1.57
2017-07-18T10:22:06.962Z,1.23
2017-07-18T10:24:35.240Z,1.20
2017-07-18T10:27:03.588Z,1.40
2017-07-18T10:29:31.996Z,2.00
2017-07-18T10:32:00.271Z,1.30
2017-07-18T10:34:28.778Z,1.43
2017-07-18T10:36:57.069Z,1.50
2017-07-18T10:39:25.357Z,1.40
2017-07-18T10:41:53.726Z,1.43
2017-07-18T10:44:22.021Z,1.33
2017-07-18T10:46:50.312Z,1.70
2017-07-18T10:49:18.625Z,1.60
2017-07-18T10:51:47.685Z,1.67
2017-07-18T10:54:16.005Z,1.40
2017-07-18T10:56:44.276Z,2.10
2017-07-18T10:59:12.598Z,1.33
2017-07-18T11:01:41.657Z,1.17
2017-07-18T11:04:09.940Z,1.10
2017-07-18T11:06:38.263Z,1.43
2017-07-18T11:09:06.549Z,1.20
2017-07-18T11:11:34.938Z,1.10
2017-07-18T11:14:03.261Z,1.17
2017-07-18T11:16:32.311Z,1.47
2017-07-18T11:19:00.632Z,1.20
2017-07-18T11:21:29.009Z,1.87
2017-07-18T11:23:57.402Z,1.20
2017-07-18T11:26:25.695Z,1.30
2017-07-18T11:28:53.990Z,1.53
2017-07-18T11:31:22.294Z,1.60
2017-07-18T11:33:51.412Z,1.10
2017-07-18T11:36:20.600Z,1.30
2017-07-18T11:38:48.923Z,1.93
2017-07-18T11:41:17.266Z,1.40
2017-07-18T11:43:45.554Z,1.30
2017-07-18T11:46:13.872Z,1.53
2017-07-18T11:48:42.960Z,1.70
2017-07-18T11:51:11.260Z,2.33
2017-07-18T11:53:39.657Z,1.27
2017-07-18T11:56:08.048Z,1.40
2017-07-18T11:58:37.141Z,1.33
2017-07-18T12:01:05.434Z,1.47
2017-07-18T12:03:33.719Z,1.30
2017-07-18T12:06:02.043Z,1.57
2017-07-18T12:08:30.336Z,1.30
2017-07-18T12:10:58.696Z,2.17
2017-07-18T12:13:26.975Z,1.63
2017-07-18T12:15:55.292Z,2.03
2017-07-18T12:18:36.363Z,1.47
2017-07-18T12:21:04.713Z,1.20
2017-07-18T12:23:33.053Z,1.50
2017-07-18T12:26:01.441Z,1.27
2017-07-18T12:28:29.829Z,1.90
2017-07-18T12:30:58.225Z,1.60
2017-07-18T12:33:26.608Z,1.50
2017-07-18T12:35:54.990Z,1.80
2017-07-18T12:38:23.392Z,1.30
2017-07-18T12:40:51.780Z,1.70
2017-07-18T12:43:20.076Z,1.60
2017-07-18T12:45:48.392Z,1.20
2017-07-18T12:48:17.459Z,1.80
2017-07-18T12:50:45.850Z,1.47
2017-07-18T12:53:14.143Z,1.20
2017-07-18T12:55:42.427Z,1.57
2017-07-18T12:58:10.735Z,2.27
2017-07-18T13:00:39.021Z,1.87
2017-07-18T13:03:07.413Z,1.63
2017-07-18T13:05:35.731Z,1.47
2017-07-18T13:08:04.015Z,1.67
2017-07-18T13:10:33.105Z,1.80
2017-07-18T13:13:01.493Z,1.43
2017-07-18T13:15:29.785Z,1.60
2017-07-18T13:17:58.883Z,1.43
2017-07-18T13:20:27.172Z,2.00
2017-07-18T13:22:55.508Z,1.93
2017-07-18T13:25:23.857Z,1.20
2017-07-18T13:27:52.912Z,1.20
2017-07-18T13:30:21.219Z,1.60
2017-07-18T13:32:49.640Z,1.60
2017-07-18T13:35:18.032Z,1.50
2017-07-18T13:37:46.336Z,2.23
2017-07-18T13:40:14.719Z,1.50
2017-07-18T13:42:43.100Z,1.30
2017-07-18T13:45:12.252Z,1.50
2017-07-18T13:47:40.536Z,1.73
2017-07-18T13:50:08.872Z,1.90
2017-07-18T13:52:37.175Z,1.30
2017-07-18T13:55:05.464Z,1.20
2017-07-18T13:57:33.775Z,1.40
2017-07-18T14:00:02.837Z,1.90
2017-07-18T14:02:31.166Z,1.10
2017-07-18T14:05:00.851Z,1.17
2017-07-18T14:07:29.326Z,1.13
2017-07-18T14:09:57.643Z,1.40
2017-07-18T14:12:26.034Z,1.90
2017-07-18T14:14:54.441Z,1.67
2017-07-18T14:17:22.733Z,1.53
2017-07-18T14:19:51.170Z,1.50
2017-07-18T14:22:20.331Z,1.10
2017-07-18T14:24:49.609Z,1.40
2017-07-18T14:27:17.957Z,1.13
2017-07-18T14:29:47.002Z,1.30
2017-07-18T14:32:15.332Z,1.70
2017-07-18T14:34:43.725Z,1.53
2017-07-18T14:37:12.006Z,1.60
2017-07-18T14:39:40.399Z,1.40
2017-07-18T14:42:08.791Z,1.70
2017-07-18T14:44:37.174Z,1.70
2017-07-18T14:47:05.580Z,0.97
2017-07-18T14:49:33.851Z,1.70
2017-07-18T14:52:02.175Z,1.40
2017-07-18T14:54:30.468Z,1.50
2017-07-18T14:56:59.550Z,1.53
2017-07-18T14:59:27.876Z,1.53
2017-07-18T15:01:56.227Z,1.13
2017-07-18T15:04:24.520Z,1.70
2017-07-18T15:06:52.801Z,1.43
2017-07-18T15:09:21.105Z,2.17
2017-07-18T15:11:49.411Z,1.10
2017-07-18T15:14:18.598Z,1.20
2017-07-18T15:16:46.878Z,1.30
2017-07-18T15:19:15.187Z,1.57
2017-07-18T15:21:44.234Z,1.50
2017-07-18T15:24:12.552Z,1.30
2017-07-18T15:26:41.072Z,1.50
2017-07-18T15:29:09.441Z,1.30
2017-07-18T15:31:37.729Z,1.30
2017-07-18T15:34:06.056Z,1.23
2017-07-18T15:36:35.113Z,1.10
2017-07-18T15:39:03.404Z,1.30
2017-07-18T15:41:31.724Z,1.10
2017-07-18T15:44:00.205Z,1.13
2017-07-18T15:46:28.478Z,1.20
2017-07-18T15:48:56.787Z,1.47
2017-07-18T15:51:25.099Z,1.73
2017-07-18T15:53:54.196Z,1.70
2017-07-18T15:56:22.484Z,1.33
2017-07-18T15:58:50.828Z,1.33
2017-07-18T16:01:19.164Z,1.10
2017-07-18T16:03:47.447Z,1.27
2017-07-18T16:06:15.763Z,1.63
2017-07-18T16:08:44.928Z,1.17
2017-07-18T16:11:13.245Z,1.30
2017-07-18T16:13:41.623Z,1.17
2017-07-18T16:16:10.031Z,1.03
2017-07-18T16:18:38.328Z,1.20
2017-07-18T16:21:07.537Z,1.20
2017-07-18T16:23:35.818Z,1.33
2017-07-18T16:26:05.019Z,1.37
2017-07-18T16:28:33.336Z,1.23
2017-07-18T16:31:02.402Z,1.10
2017-07-18T16:33:30.816Z,1.43
2017-07-18T16:35:59.099Z,1.60
2017-07-18T16:38:27.479Z,2.00
2017-07-18T16:40:55.807Z,1.47
2017-07-18T16:43:24.879Z,1.57
2017-07-18T16:45:53.164Z,1.67
2017-07-18T16:48:21.568Z,1.13
2017-07-18T16:50:49.843Z,1.30
2017-07-18T16:53:18.169Z,1.33
2017-07-18T16:55:47.225Z,1.20
2017-07-18T16:58:15.644Z,1.20
2017-07-18T17:00:44.036Z,1.60
2017-07-18T17:03:12.314Z,1.50
2017-07-18T17:05:40.641Z,1.27
2017-07-18T17:08:09.892Z,1.50
2017-07-18T17:10:38.226Z,1.60
2017-07-18T17:13:06.512Z,1.90
2017-07-18T17:15:34.890Z,1.40
2017-07-18T17:18:03.233Z,1.60
2017-07-18T17:20:31.580Z,1.57
2017-07-18T17:22:59.896Z,1.80
2017-07-18T17:25:28.990Z,1.93
2017-07-18T17:27:58.088Z,1.67
2017-07-18T17:30:26.463Z,1.83
2017-07-18T17:32:54.770Z,2.20
2017-07-18T17:35:25.152Z,1.10
2017-07-18T17:37:53.686Z,1.67
2017-07-18T17:40:21.984Z,1.97
2017-07-18T17:42:50.269Z,2.00
2017-07-18T17:45:18.592Z,1.73
2017-07-18T17:47:47.627Z,1.87
2017-07-18T17:50:15.962Z,2.60
2017-07-18T17:52:44.257Z,1.47
2017-07-18T17:55:12.640Z,1.80
2017-07-18T17:57:40.929Z,1.87
2017-07-18T18:00:09.311Z,4.43
2017-07-18T18:02:37.730Z,1.90
2017-07-18T18:05:06.932Z,1.53
2017-07-18T18:07:35.307Z,1.57
2017-07-18T18:10:03.807Z,2.00
2017-07-18T18:12:32.104Z,1.40
2017-07-18T18:15:00.397Z,2.17
2017-07-18T18:17:28.779Z,1.90
2017-07-18T18:19:57.879Z,2.50
2017-07-18T18:22:26.172Z,1.60
2017-07-18T18:24:54.577Z,2.50
2017-07-18T18:27:22.961Z,2.10
2017-07-18T18:29:51.274Z,1.80
2017-07-18T18:32:19.637Z,2.00
2017-07-18T18:34:48.047Z,2.50
2017-07-18T18:37:17.108Z,2.00
2017-07-18T18:39:45.437Z,2.80
2017-07-18T18:42:13.905Z,2.23
2017-07-18T18:44:42.706Z,2.60
2017-07-18T18:47:11.012Z,2.83
2017-07-18T18:49:39.297Z,2.30
2017-07-18T18:52:07.724Z,2.03
2017-07-18T18:54:36.019Z,3.30
2017-07-18T18:57:04.326Z,2.90
2017-07-18T18:59:32.747Z,2.83
2017-07-18T19:02:01.062Z,2.33
2017-07-18T19:04:30.126Z,2.53
2017-07-18T19:06:58.399Z,2.73
2017-07-18T19:09:26.731Z,2.70
2017-07-18T19:11:55.053Z,2.60
2017-07-18T19:14:24.104Z,2.10
2017-07-18T19:16:52.407Z,3.00
2017-07-18T19:19:20.797Z,2.50
2017-07-18T19:21:49.099Z,2.80
2017-07-18T19:24:17.375Z,2.63
2017-07-18T19:26:45.704Z,2.83
2017-07-18T19:29:14.752Z,2.97
2017-07-18T19:31:43.165Z,3.10
2017-07-18T19:34:11.477Z,2.40
2017-07-18T19:36:39.783Z,4.03
2017-07-18T19:39:08.958Z,3.30
2017-07-18T19:41:37.267Z,3.23
2017-07-18T19:44:05.547Z,2.30
2017-07-18T19:46:34.025Z,2.97
2017-07-18T19:49:02.380Z,2.90
2017-07-18T19:51:30.720Z,2.90
2017-07-18T19:53:59.056Z,3.00
2017-07-18T19:56:27.401Z,3.43
2017-07-18T19:58:55.696Z,3.30
2017-07-18T20:01:24.009Z,3.40
2017-07-18T20:03:53.061Z,3.07
2017-07-18T20:06:21.575Z,2.93
2017-07-18T20:08:49.956Z,3.40
2017-07-18T20:11:18.287Z,2.93
2017-07-18T20:13:47.384Z,3.20
2017-07-18T20:16:16.476Z,3.80
2017-07-18T20:18:44.907Z,3.40
2017-07-18T20:21:13.265Z,2.67
2017-07-18T20:23:41.652Z,3.03
2017-07-18T20:26:10.038Z,3.30
2017-07-18T20:28:38.364Z,3.17
2017-07-18T20:31:07.416Z,3.30
2017-07-18T20:33:35.748Z,3.53
2017-07-18T20:36:04.836Z,3.63
2017-07-18T20:38:33.224Z,4.40
2017-07-18T20:41:01.543Z,3.70
2017-07-18T20:43:30.586Z,3.67
2017-07-18T20:45:58.990Z,3.47
2017-07-18T20:48:27.289Z,5.73
2017-07-18T20:50:55.586Z,4.10
2017-07-18T20:55:59.412Z,3.40
2017-07-18T20:58:27.836Z,4.67
2017-07-18T21:00:56.130Z,4.30
2017-07-18T21:03:24.579Z,5.77
2017-07-18T21:05:53.409Z,3.40
2017-07-18T21:08:22.529Z,3.60
2017-07-18T21:10:50.911Z,3.13
2017-07-18T21:13:19.208Z,4.03
2017-07-18T21:15:47.497Z,3.23
2017-07-18T21:18:15.830Z,3.37
2017-07-18T21:20:44.192Z,3.67
2017-07-18T21:23:12.516Z,3.87
2017-07-18T21:25:40.851Z,3.20
2017-07-18T21:28:09.248Z,3.03
2017-07-18T21:30:37.530Z,3.70
2017-07-18T21:33:05.923Z,3.30
2017-07-18T21:35:34.200Z,3.70
2017-07-18T21:38:02.798Z,3.53
2017-07-18T21:40:31.089Z,3.37
2017-07-18T21:42:59.400Z,4.20
2017-07-18T21:45:27.784Z,4.60
2017-07-18T21:47:56.162Z,4.87
2017-07-18T21:50:24.484Z,4.13
2017-07-18T21:52:53.664Z,6.20
2017-07-18T21:55:21.959Z,4.30
2017-07-18T21:57:50.248Z,3.97
2017-07-18T22:00:18.634Z,4.50
2017-07-18T22:02:46.965Z,4.20
2017-07-18T22:05:15.257Z,4.10
2017-07-18T22:07:43.577Z,5.07
2017-07-18T22:10:11.914Z,3.90
2017-07-18T22:12:40.968Z,4.73
2017-07-18T22:15:09.243Z,4.93
2017-07-18T22:17:37.560Z,5.30
2017-07-18T22:20:05.884Z,4.43
2017-07-18T22:22:34.183Z,4.30
2017-07-18T22:25:03.279Z,4.43
2017-07-18T22:27:31.593Z,4.10
2017-07-18T22:30:00.056Z,4.33
2017-07-18T22:32:28.739Z,5.23
2017-07-18T22:34:57.015Z,4.67
2017-07-18T22:37:25.300Z,5.40
2017-07-18T22:39:53.612Z,4.40
2017-07-18T22:42:21.887Z,4.40
2017-07-18T22:44:50.291Z,4.13
2017-07-18T22:47:18.575Z,5.87
2017-07-18T22:49:46.982Z,4.77
2017-07-18T22:52:16.032Z,4.63
2017-07-18T22:54:44.310Z,4.20
2017-07-18T22:57:12.627Z,4.57
2017-07-18T22:59:41.247Z,5.10
2017-07-18T23:02:09.574Z,4.30
2017-07-18T23:04:38.619Z,4.03
2017-07-18T23:07:06.912Z,4.40
2017-07-18T23:09:35.234Z,5.47
2017-07-18T23:12:03.539Z,5.23
2017-07-18T23:14:32.657Z,4.10
2017-07-18T23:17:01.708Z,4.60
2017-07-18T23:19:30.028Z,5.60
2017-07-18T23:21:58.343Z,6.20
2017-07-18T23:24:27.536Z,4.83
2017-07-18T23:26:55.815Z,5.23
2017-07-18T23:29:24.141Z,5.87
2017-07-18T23:31:52.424Z,4.60
2017-07-18T23:34:21.471Z,6.03
2017-07-18T23:36:49.793Z,5.13
2017-07-18T23:39:18.085Z,6.50
2017-07-18T23:41:46.386Z,5.40
2017-07-18T23:44:15.463Z,4.93
2017-07-18T23:46:43.739Z,7.27
2017-07-18T23:49:12.056Z,5.03
2017-07-18T23:51:40.376Z,6.97
2017-07-18T23:54:09.556Z,6.00
2017-07-18T23:56:37.855Z,5.50
2017-07-18T23:59:06.241Z,5.17
